sensor_id;sensor_type;location;lat;lon;timestamp;P1;durP1;ratioP1;P2;durP2;ratioP2
75535;SDS011;64119;52.070;20.804;2024-01-15T00:02:08;8.90;;;4.40;;
75535;SDS011;64119;52.070;20.804;2024-01-15T00:04:39;7.30;;;3.60;;
75535;SDS011;64119;52.070;20.804;2024-01-15T00:07:08;6.60;;;4.10;;
75535;SDS011;64119;52.070;20.804;2024-01-15T00:09:37;6.20;;;3.90;;
75535;SDS011;64119;52.070;20.804;2024-01-15T00:12:05;11.10;;;4.40;;
75535;SDS011;64119;52.070;20.804;2024-01-15T00:14:34;9.50;;;4.40;;
75535;SDS011;64119;52.070;20.804;2024-01-15T00:17:01;8.60;;;3.70;;
75535;SDS011;64119;52.070;20.804;2024-01-15T00:19:29;9.10;;;4.30;;
75535;SDS011;64119;52.070;20.804;2024-01-15T00:22:00;7.40;;;4.70;;
75535;SDS011;64119;52.070;20.804;2024-01-15T00:24:27;9.10;;;4.30;;
75535;SDS011;64119;52.070;20.804;2024-01-15T00:26:55;6.70;;;3.80;;
75535;SDS011;64119;52.070;20.804;2024-01-15T00:29:23;10.40;;;5.20;;
75535;SDS011;64119;52.070;20.804;2024-01-15T00:35:16;7.60;;;3.70;;
75535;SDS011;64119;52.070;20.804;2024-01-15T00:37:44;6.70;;;4.20;;
75535;SDS011;64119;52.070;20.804;2024-01-15T00:40:11;7.70;;;4.60;;
75535;SDS011;64119;52.070;20.804;2024-01-15T00:42:39;9.60;;;5.00;;
75535;SDS011;64119;52.070;20.804;2024-01-15T00:45:07;9.00;;;4.60;;
75535;SDS011;64119;52.070;20.804;2024-01-15T00:47:36;8.70;;;5.50;;
75535;SDS011;64119;52.070;20.804;2024-01-15T00:50:04;10.60;;;6.00;;
75535;SDS011;64119;52.070;20.804;2024-01-15T00:52:33;11.70;;;5.30;;
75535;SDS011;64119;52.070;20.804;2024-01-15T00:55:00;8.70;;;4.90;;
75535;SDS011;64119;52.070;20.804;2024-01-15T00:57:28;9.70;;;5.30;;
75535;SDS011;64119;52.070;20.804;2024-01-15T00:59:56;9.80;;;5.50;;
75535;SDS011;64119;52.070;20.804;2024-01-15T01:02:24;8.60;;;4.70;;
75535;SDS011;64119;52.070;20.804;2024-01-15T01:04:53;9.80;;;5.40;;
75535;SDS011;64119;52.070;20.804;2024-01-15T01:07:21;9.60;;;5.00;;
75535;SDS011;64119;52.070;20.804;2024-01-15T01:09:49;11.40;;;5.60;;
75535;SDS011;64119;52.070;20.804;2024-01-15T01:12:18;8.90;;;5.10;;
75535;SDS011;64119;52.070;20.804;2024-01-15T01:14:46;10.80;;;5.00;;
75535;SDS011;64119;52.070;20.804;2024-01-15T01:17:14;10.20;;;5.00;;
75535;SDS011;64119;52.070;20.804;2024-01-15T01:19:42;10.60;;;5.80;;
75535;SDS011;64119;52.070;20.804;2024-01-15T01:22:10;8.50;;;4.60;;
75535;SDS011;64119;52.070;20.804;2024-01-15T01:24:38;12.50;;;5.60;;
75535;SDS011;64119;52.070;20.804;2024-01-15T01:27:06;13.70;;;6.00;;
75535;SDS011;64119;52.070;20.804;2024-01-15T01:29:33;10.80;;;5.40;;
75535;SDS011;64119;52.070;20.804;2024-01-15T01:32:02;9.70;;;5.30;;
75535;SDS011;64119;52.070;20.804;2024-01-15T01:34:32;12.50;;;6.50;;
75535;SDS011;64119;52.070;20.804;2024-01-15T01:37:01;10.30;;;5.90;;
75535;SDS011;64119;52.070;20.804;2024-01-15T01:39:29;10.10;;;5.30;;
75535;SDS011;64119;52.070;20.804;2024-01-15T01:41:57;12.20;;;5.50;;
75535;SDS011;64119;52.070;20.804;2024-01-15T01:44:25;10.10;;;5.60;;
75535;SDS011;64119;52.070;20.804;2024-01-15T01:46:53;9.10;;;5.00;;
75535;SDS011;64119;52.070;20.804;2024-01-15T01:49:22;7.40;;;4.50;;
75535;SDS011;64119;52.070;20.804;2024-01-15T01:51:51;10.40;;;5.70;;
75535;SDS011;64119;52.070;20.804;2024-01-15T01:54:20;9.10;;;5.20;;
75535;SDS011;64119;52.070;20.804;2024-01-15T01:56:48;7.10;;;3.70;;
75535;SDS011;64119;52.070;20.804;2024-01-15T01:59:17;9.20;;;4.20;;
75535;SDS011;64119;52.070;20.804;2024-01-15T02:01:46;9.70;;;5.10;;
75535;SDS011;64119;52.070;20.804;2024-01-15T02:04:15;8.00;;;4.20;;
75535;SDS011;64119;52.070;20.804;2024-01-15T02:06:48;11.60;;;6.30;;
75535;SDS011;64119;52.070;20.804;2024-01-15T02:09:17;10.90;;;5.60;;
75535;SDS011;64119;52.070;20.804;2024-01-15T02:11:48;10.40;;;5.30;;
75535;SDS011;64119;52.070;20.804;2024-01-15T02:14:17;11.30;;;6.50;;
75535;SDS011;64119;52.070;20.804;2024-01-15T02:16:45;8.40;;;3.80;;
75535;SDS011;64119;52.070;20.804;2024-01-15T02:19:16;11.80;;;5.80;;
75535;SDS011;64119;52.070;20.804;2024-01-15T02:21:45;10.60;;;5.70;;
75535;SDS011;64119;52.070;20.804;2024-01-15T02:24:13;8.70;;;4.40;;
75535;SDS011;64119;52.070;20.804;2024-01-15T02:26:42;7.70;;;3.70;;
75535;SDS011;64119;52.070;20.804;2024-01-15T02:29:10;9.50;;;5.10;;
75535;SDS011;64119;52.070;20.804;2024-01-15T02:31:38;11.50;;;6.10;;
75535;SDS011;64119;52.070;20.804;2024-01-15T02:34:07;13.30;;;5.70;;
75535;SDS011;64119;52.070;20.804;2024-01-15T02:36:35;11.00;;;5.80;;
75535;SDS011;64119;52.070;20.804;2024-01-15T02:39:02;12.90;;;6.00;;
75535;SDS011;64119;52.070;20.804;2024-01-15T02:41:30;12.60;;;5.80;;
75535;SDS011;64119;52.070;20.804;2024-01-15T02:43:58;12.40;;;6.40;;
75535;SDS011;64119;52.070;20.804;2024-01-15T02:46:26;12.00;;;6.30;;
75535;SDS011;64119;52.070;20.804;2024-01-15T02:48:54;9.40;;;5.50;;
75535;SDS011;64119;52.070;20.804;2024-01-15T02:51:22;9.90;;;6.10;;
75535;SDS011;64119;52.070;20.804;2024-01-15T02:53:50;12.10;;;5.90;;
75535;SDS011;64119;52.070;20.804;2024-01-15T02:56:18;10.90;;;5.50;;
75535;SDS011;64119;52.070;20.804;2024-01-15T02:58:45;11.00;;;6.70;;
75535;SDS011;64119;52.070;20.804;2024-01-15T03:01:13;9.30;;;4.90;;
75535;SDS011;64119;52.070;20.804;2024-01-15T03:03:41;10.10;;;4.70;;
75535;SDS011;64119;52.070;20.804;2024-01-15T03:06:09;11.10;;;6.20;;
75535;SDS011;64119;52.070;20.804;2024-01-15T03:08:38;11.40;;;5.60;;
75535;SDS011;64119;52.070;20.804;2024-01-15T03:11:05;11.20;;;5.60;;
75535;SDS011;64119;52.070;20.804;2024-01-15T03:13:35;11.30;;;5.20;;
75535;SDS011;64119;52.070;20.804;2024-01-15T03:16:04;8.60;;;4.30;;
75535;SDS011;64119;52.070;20.804;2024-01-15T03:18:33;9.20;;;4.60;;
75535;SDS011;64119;52.070;20.804;2024-01-15T03:21:01;12.90;;;6.30;;
75535;SDS011;64119;52.070;20.804;2024-01-15T03:23:29;10.80;;;4.60;;
75535;SDS011;64119;52.070;20.804;2024-01-15T03:25:57;9.90;;;4.70;;
75535;SDS011;64119;52.070;20.804;2024-01-15T03:28:24;11.30;;;5.70;;
75535;SDS011;64119;52.070;20.804;2024-01-15T03:30:52;14.00;;;6.30;;
75535;SDS011;64119;52.070;20.804;2024-01-15T03:33:20;10.00;;;5.30;;
75535;SDS011;64119;52.070;20.804;2024-01-15T03:35:49;7.70;;;4.40;;
75535;SDS011;64119;52.070;20.804;2024-01-15T03:38:16;11.40;;;6.60;;
75535;SDS011;64119;52.070;20.804;2024-01-15T03:40:44;10.80;;;5.60;;
75535;SDS011;64119;52.070;20.804;2024-01-15T03:43:12;9.10;;;4.20;;
75535;SDS011;64119;52.070;20.804;2024-01-15T03:45:40;11.80;;;6.00;;
75535;SDS011;64119;52.070;20.804;2024-01-15T03:48:08;13.00;;;6.20;;
75535;SDS011;64119;52.070;20.804;2024-01-15T03:50:36;7.80;;;3.90;;
75535;SDS011;64119;52.070;20.804;2024-01-15T03:53:04;12.70;;;6.30;;
75535;SDS011;64119;52.070;20.804;2024-01-15T03:55:32;10.50;;;5.50;;
75535;SDS011;64119;52.070;20.804;2024-01-15T03:57:59;10.90;;;5.10;;
75535;SDS011;64119;52.070;20.804;2024-01-15T04:00:27;11.70;;;5.50;;
75535;SDS011;64119;52.070;20.804;2024-01-15T04:02:55;8.10;;;4.60;;
75535;SDS011;64119;52.070;20.804;2024-01-15T04:05:23;9.90;;;5.70;;
75535;SDS011;64119;52.070;20.804;2024-01-15T04:07:50;11.90;;;5.80;;
75535;SDS011;64119;52.070;20.804;2024-01-15T04:10:18;10.00;;;5.20;;
75535;SDS011;64119;52.070;20.804;2024-01-15T04:12:46;10.10;;;5.10;;
75535;SDS011;64119;52.070;20.804;2024-01-15T04:15:14;8.80;;;5.00;;
75535;SDS011;64119;52.070;20.804;2024-01-15T04:17:42;9.70;;;5.60;;
75535;SDS011;64119;52.070;20.804;2024-01-15T04:20:10;10.70;;;6.20;;
75535;SDS011;64119;52.070;20.804;2024-01-15T04:22:38;10.30;;;5.30;;
75535;SDS011;64119;52.070;20.804;2024-01-15T04:25:06;9.70;;;4.40;;
75535;SDS011;64119;52.070;20.804;2024-01-15T04:27:34;9.20;;;3.80;;
75535;SDS011;64119;52.070;20.804;2024-01-15T04:30:02;13.00;;;6.10;;
75535;SDS011;64119;52.070;20.804;2024-01-15T04:32:31;7.10;;;4.20;;
75535;SDS011;64119;52.070;20.804;2024-01-15T04:34:58;9.90;;;5.50;;
75535;SDS011;64119;52.070;20.804;2024-01-15T04:37:26;9.10;;;4.70;;
75535;SDS011;64119;52.070;20.804;2024-01-15T04:39:54;9.50;;;4.70;;
75535;SDS011;64119;52.070;20.804;2024-01-15T04:42:22;10.60;;;5.50;;
75535;SDS011;64119;52.070;20.804;2024-01-15T04:44:50;11.40;;;5.60;;
75535;SDS011;64119;52.070;20.804;2024-01-15T04:47:18;9.20;;;4.60;;
75535;SDS011;64119;52.070;20.804;2024-01-15T04:49:46;10.10;;;5.70;;
75535;SDS011;64119;52.070;20.804;2024-01-15T04:52:15;13.00;;;6.20;;
75535;SDS011;64119;52.070;20.804;2024-01-15T04:54:43;11.30;;;4.70;;
75535;SDS011;64119;52.070;20.804;2024-01-15T04:57:11;11.00;;;5.10;;
75535;SDS011;64119;52.070;20.804;2024-01-15T04:59:39;8.70;;;5.80;;
75535;SDS011;64119;52.070;20.804;2024-01-15T05:02:07;9.50;;;4.80;;
75535;SDS011;64119;52.070;20.804;2024-01-15T05:04:35;9.20;;;4.50;;
75535;SDS011;64119;52.070;20.804;2024-01-15T05:07:03;12.00;;;5.70;;
75535;SDS011;64119;52.070;20.804;2024-01-15T05:09:30;8.90;;;5.50;;
75535;SDS011;64119;52.070;20.804;2024-01-15T05:11:59;8.70;;;5.40;;
75535;SDS011;64119;52.070;20.804;2024-01-15T05:14:27;8.60;;;4.00;;
75535;SDS011;64119;52.070;20.804;2024-01-15T05:16:55;7.50;;;5.30;;
75535;SDS011;64119;52.070;20.804;2024-01-15T05:19:23;9.50;;;5.00;;
75535;SDS011;64119;52.070;20.804;2024-01-15T05:21:51;10.00;;;5.40;;
75535;SDS011;64119;52.070;20.804;2024-01-15T05:24:18;7.70;;;3.80;;
75535;SDS011;64119;52.070;20.804;2024-01-15T05:26:46;10.10;;;5.20;;
75535;SDS011;64119;52.070;20.804;2024-01-15T05:29:14;6.60;;;4.20;;
75535;SDS011;64119;52.070;20.804;2024-01-15T05:31:42;10.80;;;5.50;;
75535;SDS011;64119;52.070;20.804;2024-01-15T05:34:10;6.20;;;3.80;;
75535;SDS011;64119;52.070;20.804;2024-01-15T05:36:38;6.60;;;3.40;;
75535;SDS011;64119;52.070;20.804;2024-01-15T05:39:06;9.60;;;5.00;;
75535;SDS011;64119;52.070;20.804;2024-01-15T05:41:34;10.20;;;5.60;;
75535;SDS011;64119;52.070;20.804;2024-01-15T05:44:02;10.60;;;5.20;;
75535;SDS011;64119;52.070;20.804;2024-01-15T05:46:30;10.80;;;5.30;;
75535;SDS011;64119;52.070;20.804;2024-01-15T05:48:58;7.80;;;4.20;;
75535;SDS011;64119;52.070;20.804;2024-01-15T05:51:26;8.10;;;4.60;;
75535;SDS011;64119;52.070;20.804;2024-01-15T05:53:54;7.50;;;4.70;;
75535;SDS011;64119;52.070;20.804;2024-01-15T05:56:23;9.80;;;5.10;;
75535;SDS011;64119;52.070;20.804;2024-01-15T05:58:51;9.30;;;4.80;;
75535;SDS011;64119;52.070;20.804;2024-01-15T06:01:19;8.40;;;4.10;;
75535;SDS011;64119;52.070;20.804;2024-01-15T06:03:47;7.40;;;4.80;;
75535;SDS011;64119;52.070;20.804;2024-01-15T06:06:15;10.20;;;5.50;;
75535;SDS011;64119;52.070;20.804;2024-01-15T06:08:43;9.10;;;5.00;;
75535;SDS011;64119;52.070;20.804;2024-01-15T06:11:11;7.10;;;4.50;;
75535;SDS011;64119;52.070;20.804;2024-01-15T06:13:39;8.80;;;4.20;;
75535;SDS011;64119;52.070;20.804;2024-01-15T06:16:13;11.00;;;5.70;;
75535;SDS011;64119;52.070;20.804;2024-01-15T06:18:44;8.80;;;4.70;;
75535;SDS011;64119;52.070;20.804;2024-01-15T06:21:12;10.60;;;5.10;;
75535;SDS011;64119;52.070;20.804;2024-01-15T06:23:42;8.60;;;4.60;;
75535;SDS011;64119;52.070;20.804;2024-01-15T06:26:11;9.20;;;4.70;;
75535;SDS011;64119;52.070;20.804;2024-01-15T06:31:07;7.60;;;4.00;;
75535;SDS011;64119;52.070;20.804;2024-01-15T06:33:35;8.40;;;4.50;;
75535;SDS011;64119;52.070;20.804;2024-01-15T06:36:04;7.10;;;3.70;;
75535;SDS011;64119;52.070;20.804;2024-01-15T06:38:33;8.00;;;4.00;;
75535;SDS011;64119;52.070;20.804;2024-01-15T06:41:01;10.50;;;4.70;;
75535;SDS011;64119;52.070;20.804;2024-01-15T06:43:29;6.30;;;3.50;;
75535;SDS011;64119;52.070;20.804;2024-01-15T06:45:57;8.20;;;4.60;;
75535;SDS011;64119;52.070;20.804;2024-01-15T06:48:25;10.00;;;5.10;;
75535;SDS011;64119;52.070;20.804;2024-01-15T06:50:53;8.60;;;4.60;;
75535;SDS011;64119;52.070;20.804;2024-01-15T06:53:21;13.30;;;4.80;;
75535;SDS011;64119;52.070;20.804;2024-01-15T06:55:48;8.40;;;4.60;;
75535;SDS011;64119;52.070;20.804;2024-01-15T06:58:18;9.10;;;4.70;;
75535;SDS011;64119;52.070;20.804;2024-01-15T07:00:46;11.00;;;5.40;;
75535;SDS011;64119;52.070;20.804;2024-01-15T07:03:14;10.30;;;4.90;;
75535;SDS011;64119;52.070;20.804;2024-01-15T07:05:42;7.50;;;4.40;;
75535;SDS011;64119;52.070;20.804;2024-01-15T07:08:10;8.60;;;3.80;;
75535;SDS011;64119;52.070;20.804;2024-01-15T07:10:38;7.10;;;4.10;;
75535;SDS011;64119;52.070;20.804;2024-01-15T07:13:06;8.00;;;4.50;;
75535;SDS011;64119;52.070;20.804;2024-01-15T07:15:34;9.40;;;4.60;;
75535;SDS011;64119;52.070;20.804;2024-01-15T07:18:02;7.90;;;4.00;;
75535;SDS011;64119;52.070;20.804;2024-01-15T07:20:30;8.00;;;3.80;;
75535;SDS011;64119;52.070;20.804;2024-01-15T07:22:58;8.70;;;4.80;;
75535;SDS011;64119;52.070;20.804;2024-01-15T07:25:26;9.00;;;5.00;;
75535;SDS011;64119;52.070;20.804;2024-01-15T07:27:54;10.00;;;5.20;;
75535;SDS011;64119;52.070;20.804;2024-01-15T07:30:22;8.70;;;3.90;;
75535;SDS011;64119;52.070;20.804;2024-01-15T07:32:49;7.80;;;3.90;;
75535;SDS011;64119;52.070;20.804;2024-01-15T07:35:18;5.80;;;3.20;;
75535;SDS011;64119;52.070;20.804;2024-01-15T07:37:46;8.70;;;4.70;;
75535;SDS011;64119;52.070;20.804;2024-01-15T07:40:14;11.10;;;5.20;;
75535;SDS011;64119;52.070;20.804;2024-01-15T07:42:42;8.20;;;4.50;;
75535;SDS011;64119;52.070;20.804;2024-01-15T07:45:10;7.30;;;4.10;;
75535;SDS011;64119;52.070;20.804;2024-01-15T07:47:39;6.80;;;4.30;;
75535;SDS011;64119;52.070;20.804;2024-01-15T07:50:07;9.70;;;4.70;;
75535;SDS011;64119;52.070;20.804;2024-01-15T07:52:35;8.90;;;3.70;;
75535;SDS011;64119;52.070;20.804;2024-01-15T07:55:03;6.50;;;3.70;;
75535;SDS011;64119;52.070;20.804;2024-01-15T08:00:00;8.30;;;3.90;;
75535;SDS011;64119;52.070;20.804;2024-01-15T08:02:31;8.70;;;4.70;;
75535;SDS011;64119;52.070;20.804;2024-01-15T08:05:04;9.10;;;4.30;;
75535;SDS011;64119;52.070;20.804;2024-01-15T08:07:33;7.30;;;3.70;;
75535;SDS011;64119;52.070;20.804;2024-01-15T08:10:00;6.30;;;4.00;;
75535;SDS011;64119;52.070;20.804;2024-01-15T08:12:28;10.70;;;5.00;;
75535;SDS011;64119;52.070;20.804;2024-01-15T08:14:56;9.10;;;4.90;;
75535;SDS011;64119;52.070;20.804;2024-01-15T08:17:24;8.00;;;4.20;;
75535;SDS011;64119;52.070;20.804;2024-01-15T08:19:56;7.30;;;4.00;;
75535;SDS011;64119;52.070;20.804;2024-01-15T08:22:24;10.80;;;5.00;;
75535;SDS011;64119;52.070;20.804;2024-01-15T08:24:52;9.20;;;4.50;;
75535;SDS011;64119;52.070;20.804;2024-01-15T08:27:21;8.30;;;4.00;;
75535;SDS011;64119;52.070;20.804;2024-01-15T08:29:49;10.70;;;5.00;;
75535;SDS011;64119;52.070;20.804;2024-01-15T08:32:17;9.70;;;5.70;;
75535;SDS011;64119;52.070;20.804;2024-01-15T08:34:45;9.60;;;5.70;;
75535;SDS011;64119;52.070;20.804;2024-01-15T08:37:15;6.80;;;3.90;;
75535;SDS011;64119;52.070;20.804;2024-01-15T08:39:43;8.30;;;4.60;;
75535;SDS011;64119;52.070;20.804;2024-01-15T08:42:12;12.90;;;5.30;;
75535;SDS011;64119;52.070;20.804;2024-01-15T08:44:39;10.00;;;5.00;;
75535;SDS011;64119;52.070;20.804;2024-01-15T08:47:10;9.10;;;5.00;;
75535;SDS011;64119;52.070;20.804;2024-01-15T08:49:39;9.10;;;5.10;;
75535;SDS011;64119;52.070;20.804;2024-01-15T08:52:08;9.10;;;4.70;;
75535;SDS011;64119;52.070;20.804;2024-01-15T08:54:36;6.70;;;3.90;;
75535;SDS011;64119;52.070;20.804;2024-01-15T08:57:04;9.00;;;4.70;;
75535;SDS011;64119;52.070;20.804;2024-01-15T08:59:32;8.00;;;4.70;;
75535;SDS011;64119;52.070;20.804;2024-01-15T09:02:00;7.70;;;4.20;;
75535;SDS011;64119;52.070;20.804;2024-01-15T09:04:27;9.30;;;4.90;;
75535;SDS011;64119;52.070;20.804;2024-01-15T09:06:56;8.80;;;4.20;;
75535;SDS011;64119;52.070;20.804;2024-01-15T09:09:23;4.10;;;3.00;;
75535;SDS011;64119;52.070;20.804;2024-01-15T09:11:53;8.50;;;4.50;;
75535;SDS011;64119;52.070;20.804;2024-01-15T09:14:21;9.60;;;4.50;;
75535;SDS011;64119;52.070;20.804;2024-01-15T09:17:04;9.10;;;4.70;;
75535;SDS011;64119;52.070;20.804;2024-01-15T09:19:35;8.90;;;4.80;;
75535;SDS011;64119;52.070;20.804;2024-01-15T09:22:03;8.40;;;4.00;;
75535;SDS011;64119;52.070;20.804;2024-01-15T09:24:31;6.40;;;3.50;;
75535;SDS011;64119;52.070;20.804;2024-01-15T09:26:59;7.80;;;3.20;;
75535;SDS011;64119;52.070;20.804;2024-01-15T09:29:27;5.40;;;3.20;;
75535;SDS011;64119;52.070;20.804;2024-01-15T09:31:55;7.30;;;3.80;;
75535;SDS011;64119;52.070;20.804;2024-01-15T09:34:23;7.00;;;4.10;;
75535;SDS011;64119;52.070;20.804;2024-01-15T09:36:51;5.20;;;3.00;;
75535;SDS011;64119;52.070;20.804;2024-01-15T09:39:19;6.50;;;2.90;;
75535;SDS011;64119;52.070;20.804;2024-01-15T09:41:47;4.90;;;3.00;;
75535;SDS011;64119;52.070;20.804;2024-01-15T09:44:15;4.50;;;2.40;;
75535;SDS011;64119;52.070;20.804;2024-01-15T09:46:44;6.50;;;3.00;;
75535;SDS011;64119;52.070;20.804;2024-01-15T09:49:13;4.90;;;2.50;;
75535;SDS011;64119;52.070;20.804;2024-01-15T09:51:41;5.00;;;2.90;;
75535;SDS011;64119;52.070;20.804;2024-01-15T09:54:09;6.70;;;2.60;;
75535;SDS011;64119;52.070;20.804;2024-01-15T09:56:38;6.20;;;2.00;;
75535;SDS011;64119;52.070;20.804;2024-01-15T09:59:07;5.50;;;2.20;;
75535;SDS011;64119;52.070;20.804;2024-01-15T10:01:35;5.20;;;2.50;;
75535;SDS011;64119;52.070;20.804;2024-01-15T10:04:05;4.30;;;2.50;;
75535;SDS011;64119;52.070;20.804;2024-01-15T10:06:33;4.70;;;2.20;;
75535;SDS011;64119;52.070;20.804;2024-01-15T10:09:02;5.80;;;2.70;;
75535;SDS011;64119;52.070;20.804;2024-01-15T10:11:31;6.00;;;2.90;;
75535;SDS011;64119;52.070;20.804;2024-01-15T10:14:00;7.70;;;3.20;;
75535;SDS011;64119;52.070;20.804;2024-01-15T10:16:28;7.00;;;3.00;;
75535;SDS011;64119;52.070;20.804;2024-01-15T10:18:56;7.70;;;3.50;;
75535;SDS011;64119;52.070;20.804;2024-01-15T10:21:24;7.20;;;3.00;;
75535;SDS011;64119;52.070;20.804;2024-01-15T10:23:54;5.60;;;2.30;;
75535;SDS011;64119;52.070;20.804;2024-01-15T10:26:24;5.50;;;2.80;;
75535;SDS011;64119;52.070;20.804;2024-01-15T10:28:53;4.70;;;2.20;;
75535;SDS011;64119;52.070;20.804;2024-01-15T10:31:21;8.10;;;3.30;;
75535;SDS011;64119;52.070;20.804;2024-01-15T10:33:52;6.40;;;2.70;;
75535;SDS011;64119;52.070;20.804;2024-01-15T10:36:21;5.80;;;2.70;;
75535;SDS011;64119;52.070;20.804;2024-01-15T10:38:49;5.90;;;2.40;;
75535;SDS011;64119;52.070;20.804;2024-01-15T10:41:16;5.80;;;3.40;;
75535;SDS011;64119;52.070;20.804;2024-01-15T10:43:44;6.70;;;3.10;;
75535;SDS011;64119;52.070;20.804;2024-01-15T10:46:12;9.40;;;4.80;;
75535;SDS011;64119;52.070;20.804;2024-01-15T10:48:40;5.00;;;3.10;;
75535;SDS011;64119;52.070;20.804;2024-01-15T10:51:08;7.30;;;4.60;;
75535;SDS011;64119;52.070;20.804;2024-01-15T10:56:07;7.10;;;3.90;;
75535;SDS011;64119;52.070;20.804;2024-01-15T10:58:39;4.90;;;2.90;;
75535;SDS011;64119;52.070;20.804;2024-01-15T11:01:09;7.30;;;4.20;;
75535;SDS011;64119;52.070;20.804;2024-01-15T11:03:37;7.40;;;4.30;;
75535;SDS011;64119;52.070;20.804;2024-01-15T11:06:15;10.30;;;4.80;;
75535;SDS011;64119;52.070;20.804;2024-01-15T11:08:47;7.40;;;3.80;;
75535;SDS011;64119;52.070;20.804;2024-01-15T11:11:17;7.90;;;3.70;;
75535;SDS011;64119;52.070;20.804;2024-01-15T11:13:48;7.90;;;3.80;;
75535;SDS011;64119;52.070;20.804;2024-01-15T11:16:19;6.60;;;3.30;;
75535;SDS011;64119;52.070;20.804;2024-01-15T11:21:25;6.90;;;3.30;;
75535;SDS011;64119;52.070;20.804;2024-01-15T11:23:59;8.00;;;4.10;;
75535;SDS011;64119;52.070;20.804;2024-01-15T11:29:04;8.30;;;4.00;;
75535;SDS011;64119;52.070;20.804;2024-01-15T11:34:09;7.10;;;3.80;;
75535;SDS011;64119;52.070;20.804;2024-01-15T11:41:56;10.80;;;5.00;;
75535;SDS011;64119;52.070;20.804;2024-01-15T11:44:27;8.50;;;4.60;;
75535;SDS011;64119;52.070;20.804;2024-01-15T11:46:59;10.50;;;4.70;;
75535;SDS011;64119;52.070;20.804;2024-01-15T11:52:18;11.30;;;4.90;;
75535;SDS011;64119;52.070;20.804;2024-01-15T11:57:46;12.10;;;4.10;;
75535;SDS011;64119;52.070;20.804;2024-01-15T12:00:17;9.00;;;2.80;;
75535;SDS011;64119;52.070;20.804;2024-01-15T12:02:46;8.60;;;4.10;;
75535;SDS011;64119;52.070;20.804;2024-01-15T12:05:16;8.80;;;3.90;;
75535;SDS011;64119;52.070;20.804;2024-01-15T12:07:46;8.60;;;3.90;;
75535;SDS011;64119;52.070;20.804;2024-01-15T12:10:19;9.00;;;3.80;;
75535;SDS011;64119;52.070;20.804;2024-01-15T12:12:58;8.00;;;3.90;;
75535;SDS011;64119;52.070;20.804;2024-01-15T12:15:32;9.50;;;4.40;;
75535;SDS011;64119;52.070;20.804;2024-01-15T12:18:02;5.90;;;3.40;;
75535;SDS011;64119;52.070;20.804;2024-01-15T12:20:31;7.10;;;3.60;;
75535;SDS011;64119;52.070;20.804;2024-01-15T12:23:00;7.80;;;3.90;;
75535;SDS011;64119;52.070;20.804;2024-01-15T12:25:31;5.60;;;2.80;;
75535;SDS011;64119;52.070;20.804;2024-01-15T12:28:00;8.10;;;4.10;;
75535;SDS011;64119;52.070;20.804;2024-01-15T12:30:30;7.60;;;3.80;;
75535;SDS011;64119;52.070;20.804;2024-01-15T12:33:05;8.10;;;4.60;;
75535;SDS011;64119;52.070;20.804;2024-01-15T12:35:34;9.20;;;4.30;;
75535;SDS011;64119;52.070;20.804;2024-01-15T12:38:02;8.80;;;4.40;;
75535;SDS011;64119;52.070;20.804;2024-01-15T12:40:32;10.70;;;4.60;;
75535;SDS011;64119;52.070;20.804;2024-01-15T12:43:07;5.90;;;2.90;;
75535;SDS011;64119;52.070;20.804;2024-01-15T12:45:36;8.60;;;3.60;;
75535;SDS011;64119;52.070;20.804;2024-01-15T12:48:05;8.00;;;3.60;;
75535;SDS011;64119;52.070;20.804;2024-01-15T12:50:34;7.90;;;5.30;;
75535;SDS011;64119;52.070;20.804;2024-01-15T12:53:03;8.60;;;4.40;;
75535;SDS011;64119;52.070;20.804;2024-01-15T12:55:31;7.40;;;3.70;;
75535;SDS011;64119;52.070;20.804;2024-01-15T12:57:59;7.50;;;3.60;;
75535;SDS011;64119;52.070;20.804;2024-01-15T13:00:27;12.10;;;4.50;;
75535;SDS011;64119;52.070;20.804;2024-01-15T13:02:56;6.60;;;3.40;;
75535;SDS011;64119;52.070;20.804;2024-01-15T13:07:55;7.00;;;3.70;;
75535;SDS011;64119;52.070;20.804;2024-01-15T13:10:22;7.40;;;3.50;;
75535;SDS011;64119;52.070;20.804;2024-01-15T13:12:53;10.20;;;4.60;;
75535;SDS011;64119;52.070;20.804;2024-01-15T13:15:21;9.30;;;3.70;;
75535;SDS011;64119;52.070;20.804;2024-01-15T13:17:49;6.50;;;3.80;;
75535;SDS011;64119;52.070;20.804;2024-01-15T13:20:17;7.00;;;4.10;;
75535;SDS011;64119;52.070;20.804;2024-01-15T13:22:45;10.30;;;3.50;;
75535;SDS011;64119;52.070;20.804;2024-01-15T13:25:13;8.00;;;4.50;;
75535;SDS011;64119;52.070;20.804;2024-01-15T13:27:41;12.10;;;4.10;;
75535;SDS011;64119;52.070;20.804;2024-01-15T13:30:10;8.40;;;4.00;;
75535;SDS011;64119;52.070;20.804;2024-01-15T13:32:38;5.70;;;2.90;;
75535;SDS011;64119;52.070;20.804;2024-01-15T13:35:06;8.70;;;4.10;;
75535;SDS011;64119;52.070;20.804;2024-01-15T13:37:37;7.70;;;4.10;;
75535;SDS011;64119;52.070;20.804;2024-01-15T13:40:06;8.90;;;4.00;;
75535;SDS011;64119;52.070;20.804;2024-01-15T13:42:36;7.30;;;3.30;;
75535;SDS011;64119;52.070;20.804;2024-01-15T13:45:08;9.70;;;4.30;;
75535;SDS011;64119;52.070;20.804;2024-01-15T13:47:36;9.60;;;4.70;;
75535;SDS011;64119;52.070;20.804;2024-01-15T13:50:06;11.80;;;5.50;;
75535;SDS011;64119;52.070;20.804;2024-01-15T13:52:34;9.60;;;3.90;;
75535;SDS011;64119;52.070;20.804;2024-01-15T13:55:02;10.70;;;5.10;;
75535;SDS011;64119;52.070;20.804;2024-01-15T13:57:31;8.60;;;3.90;;
75535;SDS011;64119;52.070;20.804;2024-01-15T13:59:58;7.20;;;3.80;;
75535;SDS011;64119;52.070;20.804;2024-01-15T14:02:28;7.00;;;3.80;;
75535;SDS011;64119;52.070;20.804;2024-01-15T14:04:56;8.10;;;3.60;;
75535;SDS011;64119;52.070;20.804;2024-01-15T14:07:24;7.60;;;3.50;;
75535;SDS011;64119;52.070;20.804;2024-01-15T14:09:52;9.70;;;4.60;;
75535;SDS011;64119;52.070;20.804;2024-01-15T14:12:20;9.40;;;4.00;;
75535;SDS011;64119;52.070;20.804;2024-01-15T14:14:48;9.30;;;5.10;;
75535;SDS011;64119;52.070;20.804;2024-01-15T14:17:16;8.00;;;3.60;;
75535;SDS011;64119;52.070;20.804;2024-01-15T14:19:45;10.60;;;4.50;;
75535;SDS011;64119;52.070;20.804;2024-01-15T14:22:13;8.50;;;4.40;;
75535;SDS011;64119;52.070;20.804;2024-01-15T14:24:41;9.20;;;4.30;;
75535;SDS011;64119;52.070;20.804;2024-01-15T14:27:08;8.10;;;4.00;;
75535;SDS011;64119;52.070;20.804;2024-01-15T14:29:36;11.90;;;5.50;;
75535;SDS011;64119;52.070;20.804;2024-01-15T14:32:04;7.80;;;4.00;;
75535;SDS011;64119;52.070;20.804;2024-01-15T14:34:32;9.30;;;4.20;;
75535;SDS011;64119;52.070;20.804;2024-01-15T14:37:00;8.50;;;4.10;;
75535;SDS011;64119;52.070;20.804;2024-01-15T14:39:28;9.80;;;4.20;;
75535;SDS011;64119;52.070;20.804;2024-01-15T14:41:56;8.90;;;4.50;;
75535;SDS011;64119;52.070;20.804;2024-01-15T14:44:24;7.80;;;3.10;;
75535;SDS011;64119;52.070;20.804;2024-01-15T14:46:52;9.20;;;4.20;;
75535;SDS011;64119;52.070;20.804;2024-01-15T14:49:20;10.60;;;3.80;;
75535;SDS011;64119;52.070;20.804;2024-01-15T14:51:48;11.40;;;4.40;;
75535;SDS011;64119;52.070;20.804;2024-01-15T14:54:17;6.80;;;3.50;;
75535;SDS011;64119;52.070;20.804;2024-01-15T14:56:46;8.70;;;4.40;;
75535;SDS011;64119;52.070;20.804;2024-01-15T14:59:14;10.60;;;4.00;;
75535;SDS011;64119;52.070;20.804;2024-01-15T15:01:42;9.70;;;3.40;;
75535;SDS011;64119;52.070;20.804;2024-01-15T15:04:10;9.70;;;3.90;;
75535;SDS011;64119;52.070;20.804;2024-01-15T15:06:38;10.70;;;4.00;;
75535;SDS011;64119;52.070;20.804;2024-01-15T15:09:06;10.70;;;4.10;;
75535;SDS011;64119;52.070;20.804;2024-01-15T15:11:37;9.20;;;3.90;;